Historyczne dane pomiarowe

Dodano dane terminowe – wersja testowa.

Dane z okresu 1951-2019

Wersja bazy: 1.34 [2019-03-16, lista zmian], aktualizacja planowana na 2019-04-15

Dane meteo z obszaru Polski uzyskane na podstawie danych udostępnionych przez Instytut Meteorologii i Gospodarki Wodnej – Państwowy Instytut Badawczy.

 

Wybierz Datę:    

       

TemperaturaWilgotnośćWiatrCiśnienieOpadyŚniegCzas trwania zjawisk
 Stacja t tx tn tng RH VA  wxwx mslp ppp RRR   cm mm wxwxwxwxwxwxwx
1999-08-14 16.6 22.7 10.0 7.6 55.0- 3.3 3.3---- 0.9------------
1999-08-13 15.4 19.7 12.5 11.7 72.0- 4.3 3.7---- 0.0------------
1999-08-12 16.0 21.2 11.5 9.7 70.3- 3.7 3.0---- 0.0------------
1999-08-11 18.9 24.3 14.0 11.7 70.0- 3.7 2.7---- 0.3------------
1999-08-10 19.6 23.2 14.4 13.2 84.5- 4.0 3.7---- 1.1------------
1999-08-09 21.6 25.3 17.4 15.7 71.5- 4.0 2.3---- 1.8------------
1999-08-08 23.5 30.2 17.9 15.7 62.8- 3.3 3.7---- 0.0------------
1999-08-07 22.0 29.7 12.5 10.7 61.0- 3.0 2.3---- 0.0------------
1999-08-06 21.9 27.7 15.9 13.7 67.0- 3.0 2.7---- 0.0------------
1999-08-05 18.9 27.2 9.2 6.6 60.3- 2.7 1.7---- 0.0------------
1999-08-04 18.6 27.2 7.9 6.6 59.5- 2.7 1.3---- 0.0------------
1999-08-03 17.9 26.8 8.5 6.6 70.0- 2.7 3.0---- 0.0------------
1999-08-02 19.0 26.3 11.0 9.1 57.0- 2.7 1.7---- 0.0------------
1999-08-01 20.6 27.7 11.5 8.1 60.5- 3.7 2.0---- 0.0------------
1999-07-31 19.8 27.7 11.0 10.3 52.5- 2.7 2.3---- 0.0------------
1999-07-30 19.1 25.8 11.0 7.6 56.8- 3.0 2.3---- 0.0------------
1999-07-29 18.6 25.3 11.5 10.2 62.0- 2.7 2.3---- 0.0------------
1999-07-28 18.7 25.3 11.0 8.1 59.5- 2.7 3.0---- 0.0------------
1999-07-27 18.3 23.2 14.9 14.0 71.5- 3.3 2.3---- 0.0------------
1999-07-26 20.1 28.3 11.0 9.7 69.0- 3.7 3.0---- 0.2------------
1999-07-25 19.1 25.8 9.0 8.1 64.8- 2.7 1.3---- 0.0------------
1999-07-24 17.4 20.7 14.0 14.2 69.8- 3.3 2.0---- 0.0------------
1999-07-23 16.6 21.2 13.0 12.2 73.8- 3.7 3.0---- 0.0------------
1999-07-22 18.1 22.7 15.4 13.7 66.8- 3.0 3.3---- 0.0------------
1999-07-21 22.5 28.7 15.9 14.7 66.5- 3.0 2.7---- 4.6------------
1999-07-20 22.5 31.2 14.4 12.2 58.8- 3.0 2.3---- 0.0------------
1999-07-19 21.5 29.3 12.5 10.7 64.3- 2.7 1.7---- 0.0------------
1999-07-18 21.7 28.2 11.5 10.2 60.0- 2.7 1.7---- 0.0------------
1999-07-17 19.6 24.8 10.5 9.1 52.5- 2.7 2.0---- 0.0------------
1999-07-16 16.4 21.7 11.0 9.1 76.5- 3.3 1.3---- 0.0------------
1999-07-15 17.4 20.7 13.5 13.2 70.8- 3.7 2.3---- 0.0------------
1999-07-14 19.6 24.8 16.4 15.7 91.0- 3.3 1.7---- 22.3------------
1999-07-13 21.4 26.8 16.4 14.7 81.3- 4.3 2.0---- 52.4------------
1999-07-12 21.7 29.2 15.4 13.7 73.8- 3.0 1.3---- 0.6------------
1999-07-11 20.5 23.8 17.4 15.7 73.8- 3.7 1.3---- 0.1------------
1999-07-10 21.8 26.2 16.4 15.2 64.8- 3.3 4.7---- 0.0------------
1999-07-09 18.8 22.2 14.9 14.9 86.0- 4.0 3.0---- 0.1------------
1999-07-08 15.7 18.2 14.4 14.0 94.8- 3.7 2.7---- 36.7------------
1999-07-07 18.7 21.7 17.5 13.7 89.0- 3.3 3.7---- 7.4------------
1999-07-06 23.5 31.2 17.9 15.7 71.3- 3.0 2.7---- 56.3------------
1999-07-05 25.1 31.7 16.4 13.7 56.3- 2.7 3.0---- 0.0------------
1999-07-04 23.3 31.7 13.8 11.7 57.8- 3.3 1.7---- 0.0------------
1999-07-03 20.9 26.8 12.5 9.7 67.0- 2.7 1.3---- 0.0------------
1999-07-02 19.4 25.4 14.9 12.2 90.5- 3.3 1.7---- 1.8------------
1999-07-01 19.8 24.3 15.9 13.7 77.8- 4.0 2.3---- 1.1------------
1999-06-30 19.8 26.3 11.5 10.2 68.0- 2.7 2.3---- 0.0------------
1999-06-29 18.8 23.8 13.0 10.2 61.5- 2.7 1.7---- 0.0------------
1999-06-28 20.7 26.8 15.9 14.2 80.0- 3.0 3.3---- 1.1------------
1999-06-27 21.0 26.3 15.0 11.7 63.5- 2.7 2.0---- 3.2------------
1999-06-26 15.1 21.2 9.5 7.6 77.0- 3.0 2.0---- 0.0------------
1999-06-25 13.5 19.2 8.5 6.6 75.8- 3.7 2.3---- 0.0------------
1999-06-24 12.6 18.7 3.8 2.0 73.8- 3.3 2.7---- 0.0------------
1999-06-23 12.9 16.8 9.0 8.5 80.0- 4.0 2.0---- 0.0------------
1999-06-22 10.5 13.4 9.0 8.1 92.8- 4.7 4.0---- 19.8------------
1999-06-21 16.9 20.7 13.4 13.0 76.5- 4.3 4.0---- 4.0------------
1999-06-20 18.6 23.2 13.0 11.7 79.8- 3.3 2.3---- 0.0------------
1999-06-19 15.9 19.7 12.0 12.0 89.8- 3.7 2.3---- 0.0------------
1999-06-18 16.2 20.7 13.8 11.2 95.3- 4.3 4.0---- 15.7------------
1999-06-17 18.9 22.7 14.9 13.7 80.3- 2.7 2.7---- 0.0------------
1999-06-16 17.8 21.7 14.9 14.2 81.0- 3.0 3.0---- 0.0------------
323.9 ms

 

Źródłem pochodzenia danych jest Instytut Meteorologii i Gospodarki Wodnej – Państwowy Instytut Badawczy. Dane Instytutu Meteorologii i Gospodarki Wodnej – Państwowego Instytutu Badawczego zostały przetworzone.

Dane źródłowe można odnaleźć na stronie https://dane.imgw.pl